sensor_id;sensor_type;location;lat;lon;timestamp;P1;durP1;ratioP1;P2;durP2;ratioP2
42586;SDS011;28216;53.362;-6.288;2022-09-01T00:02:14;6.90;;;2.47;;
42586;SDS011;28216;53.362;-6.288;2022-09-01T00:04:42;5.53;;;2.65;;
42586;SDS011;28216;53.362;-6.288;2022-09-01T00:07:09;4.55;;;2.45;;
42586;SDS011;28216;53.362;-6.288;2022-09-01T00:09:36;8.70;;;2.88;;
42586;SDS011;28216;53.362;-6.288;2022-09-01T00:12:03;8.43;;;2.60;;
42586;SDS011;28216;53.362;-6.288;2022-09-01T00:14:31;6.72;;;2.50;;
42586;SDS011;28216;53.362;-6.288;2022-09-01T00:17:00;5.18;;;2.60;;
42586;SDS011;28216;53.362;-6.288;2022-09-01T00:19:28;6.25;;;2.80;;
42586;SDS011;28216;53.362;-6.288;2022-09-01T00:21:53;5.63;;;2.67;;
42586;SDS011;28216;53.362;-6.288;2022-09-01T00:24:20;7.38;;;2.90;;
42586;SDS011;28216;53.362;-6.288;2022-09-01T00:26:46;6.75;;;2.47;;
42586;SDS011;28216;53.362;-6.288;2022-09-01T00:29:13;6.47;;;2.45;;
42586;SDS011;28216;53.362;-6.288;2022-09-01T00:31:39;5.45;;;2.70;;
42586;SDS011;28216;53.362;-6.288;2022-09-01T00:34:05;7.20;;;2.85;;
42586;SDS011;28216;53.362;-6.288;2022-09-01T00:36:30;9.38;;;2.65;;
42586;SDS011;28216;53.362;-6.288;2022-09-01T00:38:56;8.10;;;2.40;;
42586;SDS011;28216;53.362;-6.288;2022-09-01T00:41:23;7.13;;;2.60;;
42586;SDS011;28216;53.362;-6.288;2022-09-01T00:43:52;7.40;;;2.50;;
42586;SDS011;28216;53.362;-6.288;2022-09-01T00:48:50;7.00;;;2.50;;
42586;SDS011;28216;53.362;-6.288;2022-09-01T00:51:19;8.35;;;2.67;;
42586;SDS011;28216;53.362;-6.288;2022-09-01T00:53:45;6.32;;;2.65;;
42586;SDS011;28216;53.362;-6.288;2022-09-01T00:56:11;7.53;;;2.55;;
42586;SDS011;28216;53.362;-6.288;2022-09-01T00:58:38;7.95;;;2.75;;
42586;SDS011;28216;53.362;-6.288;2022-09-01T01:01:07;5.40;;;2.63;;
42586;SDS011;28216;53.362;-6.288;2022-09-01T01:03:35;7.47;;;2.55;;
42586;SDS011;28216;53.362;-6.288;2022-09-01T01:06:02;6.05;;;2.65;;
42586;SDS011;28216;53.362;-6.288;2022-09-01T01:08:33;8.77;;;2.50;;
42586;SDS011;28216;53.362;-6.288;2022-09-01T01:11:12;9.98;;;2.53;;
42586;SDS011;28216;53.362;-6.288;2022-09-01T01:14:01;5.25;;;2.50;;
42586;SDS011;28216;53.362;-6.288;2022-09-01T01:16:40;6.47;;;2.47;;
42586;SDS011;28216;53.362;-6.288;2022-09-01T01:22:05;5.65;;;2.38;;
42586;SDS011;28216;53.362;-6.288;2022-09-01T01:24:56;10.68;;;3.05;;
42586;SDS011;28216;53.362;-6.288;2022-09-01T01:27:22;4.60;;;2.40;;
42586;SDS011;28216;53.362;-6.288;2022-09-01T01:29:48;8.57;;;3.13;;
42586;SDS011;28216;53.362;-6.288;2022-09-01T01:32:17;7.65;;;2.58;;
42586;SDS011;28216;53.362;-6.288;2022-09-01T01:34:44;12.23;;;2.97;;
42586;SDS011;28216;53.362;-6.288;2022-09-01T01:37:11;9.63;;;2.88;;
42586;SDS011;28216;53.362;-6.288;2022-09-01T01:39:38;7.93;;;3.08;;
42586;SDS011;28216;53.362;-6.288;2022-09-01T01:42:07;10.23;;;2.80;;
42586;SDS011;28216;53.362;-6.288;2022-09-01T01:44:33;7.40;;;2.55;;
42586;SDS011;28216;53.362;-6.288;2022-09-01T01:47:02;8.55;;;2.63;;
42586;SDS011;28216;53.362;-6.288;2022-09-01T01:49:32;9.15;;;2.72;;
42586;SDS011;28216;53.362;-6.288;2022-09-01T01:51:59;12.40;;;2.70;;
42586;SDS011;28216;53.362;-6.288;2022-09-01T01:54:25;9.25;;;2.70;;
42586;SDS011;28216;53.362;-6.288;2022-09-01T01:56:53;7.78;;;2.67;;
42586;SDS011;28216;53.362;-6.288;2022-09-01T01:59:19;10.13;;;2.90;;
42586;SDS011;28216;53.362;-6.288;2022-09-01T02:01:48;10.02;;;2.80;;
42586;SDS011;28216;53.362;-6.288;2022-09-01T02:04:15;10.10;;;3.10;;
42586;SDS011;28216;53.362;-6.288;2022-09-01T02:06:41;13.25;;;3.20;;
42586;SDS011;28216;53.362;-6.288;2022-09-01T02:09:10;11.00;;;3.40;;
42586;SDS011;28216;53.362;-6.288;2022-09-01T02:11:37;9.57;;;2.78;;
42586;SDS011;28216;53.362;-6.288;2022-09-01T02:14:03;10.75;;;3.08;;
42586;SDS011;28216;53.362;-6.288;2022-09-01T02:16:30;12.25;;;3.03;;
42586;SDS011;28216;53.362;-6.288;2022-09-01T02:18:59;14.90;;;3.20;;
42586;SDS011;28216;53.362;-6.288;2022-09-01T02:21:26;16.35;;;3.17;;
42586;SDS011;28216;53.362;-6.288;2022-09-01T02:23:53;10.93;;;3.17;;
42586;SDS011;28216;53.362;-6.288;2022-09-01T02:26:31;11.75;;;2.97;;
42586;SDS011;28216;53.362;-6.288;2022-09-01T02:29:05;11.93;;;3.40;;
42586;SDS011;28216;53.362;-6.288;2022-09-01T02:31:33;11.77;;;2.90;;
42586;SDS011;28216;53.362;-6.288;2022-09-01T02:34:03;11.82;;;3.30;;
42586;SDS011;28216;53.362;-6.288;2022-09-01T02:36:29;11.35;;;3.20;;
42586;SDS011;28216;53.362;-6.288;2022-09-01T02:38:59;11.90;;;3.15;;
42586;SDS011;28216;53.362;-6.288;2022-09-01T02:41:24;15.43;;;3.60;;
42586;SDS011;28216;53.362;-6.288;2022-09-01T02:43:53;13.85;;;3.40;;
42586;SDS011;28216;53.362;-6.288;2022-09-01T02:46:18;9.15;;;3.13;;
42586;SDS011;28216;53.362;-6.288;2022-09-01T02:48:47;14.98;;;3.50;;
42586;SDS011;28216;53.362;-6.288;2022-09-01T02:51:16;15.18;;;3.15;;
42586;SDS011;28216;53.362;-6.288;2022-09-01T02:53:44;9.90;;;3.15;;
42586;SDS011;28216;53.362;-6.288;2022-09-01T02:56:12;11.13;;;3.22;;
42586;SDS011;28216;53.362;-6.288;2022-09-01T02:58:39;12.80;;;3.58;;
42586;SDS011;28216;53.362;-6.288;2022-09-01T03:03:49;10.48;;;3.47;;
42586;SDS011;28216;53.362;-6.288;2022-09-01T03:06:17;19.23;;;3.60;;
42586;SDS011;28216;53.362;-6.288;2022-09-01T03:08:45;12.77;;;3.78;;
42586;SDS011;28216;53.362;-6.288;2022-09-01T03:11:12;14.20;;;3.50;;
42586;SDS011;28216;53.362;-6.288;2022-09-01T03:13:38;12.68;;;3.55;;
42586;SDS011;28216;53.362;-6.288;2022-09-01T03:16:05;14.98;;;3.67;;
42586;SDS011;28216;53.362;-6.288;2022-09-01T03:18:31;12.10;;;3.35;;
42586;SDS011;28216;53.362;-6.288;2022-09-01T03:20:57;11.73;;;3.38;;
42586;SDS011;28216;53.362;-6.288;2022-09-01T03:23:23;13.98;;;3.80;;
42586;SDS011;28216;53.362;-6.288;2022-09-01T03:25:52;7.40;;;3.22;;
42586;SDS011;28216;53.362;-6.288;2022-09-01T03:28:18;12.85;;;3.83;;
42586;SDS011;28216;53.362;-6.288;2022-09-01T03:30:48;13.63;;;4.13;;
42586;SDS011;28216;53.362;-6.288;2022-09-01T03:33:16;11.63;;;3.72;;
42586;SDS011;28216;53.362;-6.288;2022-09-01T03:35:44;12.93;;;3.90;;
42586;SDS011;28216;53.362;-6.288;2022-09-01T03:38:10;10.45;;;3.65;;
42586;SDS011;28216;53.362;-6.288;2022-09-01T03:40:37;7.90;;;3.60;;
42586;SDS011;28216;53.362;-6.288;2022-09-01T03:43:07;14.05;;;4.03;;
42586;SDS011;28216;53.362;-6.288;2022-09-01T03:45:37;10.40;;;3.70;;
42586;SDS011;28216;53.362;-6.288;2022-09-01T03:48:04;11.27;;;3.60;;
42586;SDS011;28216;53.362;-6.288;2022-09-01T03:50:34;9.75;;;3.72;;
42586;SDS011;28216;53.362;-6.288;2022-09-01T03:53:09;12.18;;;4.00;;
42586;SDS011;28216;53.362;-6.288;2022-09-01T03:55:37;12.02;;;3.67;;
42586;SDS011;28216;53.362;-6.288;2022-09-01T03:58:04;13.27;;;3.95;;
42586;SDS011;28216;53.362;-6.288;2022-09-01T04:00:33;11.77;;;3.33;;
42586;SDS011;28216;53.362;-6.288;2022-09-01T04:03:02;9.40;;;3.55;;
42586;SDS011;28216;53.362;-6.288;2022-09-01T04:05:29;8.05;;;3.70;;
42586;SDS011;28216;53.362;-6.288;2022-09-01T04:07:58;8.07;;;3.67;;
42586;SDS011;28216;53.362;-6.288;2022-09-01T04:10:30;9.02;;;3.47;;
42586;SDS011;28216;53.362;-6.288;2022-09-01T04:12:58;9.80;;;3.83;;
42586;SDS011;28216;53.362;-6.288;2022-09-01T04:15:24;7.65;;;3.75;;
42586;SDS011;28216;53.362;-6.288;2022-09-01T04:17:51;9.95;;;3.72;;
42586;SDS011;28216;53.362;-6.288;2022-09-01T04:20:36;11.57;;;3.88;;
42586;SDS011;28216;53.362;-6.288;2022-09-01T04:23:16;8.40;;;3.67;;
42586;SDS011;28216;53.362;-6.288;2022-09-01T04:25:50;9.23;;;4.00;;
42586;SDS011;28216;53.362;-6.288;2022-09-01T04:28:18;9.38;;;4.00;;
42586;SDS011;28216;53.362;-6.288;2022-09-01T04:30:53;11.00;;;3.83;;
42586;SDS011;28216;53.362;-6.288;2022-09-01T04:33:30;13.77;;;4.30;;
42586;SDS011;28216;53.362;-6.288;2022-09-01T04:36:14;9.07;;;4.00;;
42586;SDS011;28216;53.362;-6.288;2022-09-01T04:38:57;13.68;;;4.40;;
42586;SDS011;28216;53.362;-6.288;2022-09-01T04:41:25;12.30;;;3.88;;
42586;SDS011;28216;53.362;-6.288;2022-09-01T04:43:55;6.78;;;3.80;;
42586;SDS011;28216;53.362;-6.288;2022-09-01T04:46:21;8.25;;;3.60;;
42586;SDS011;28216;53.362;-6.288;2022-09-01T04:48:47;9.18;;;3.58;;
42586;SDS011;28216;53.362;-6.288;2022-09-01T04:51:16;8.13;;;3.40;;
42586;SDS011;28216;53.362;-6.288;2022-09-01T04:53:42;11.20;;;3.70;;
42586;SDS011;28216;53.362;-6.288;2022-09-01T04:56:13;11.25;;;3.60;;
42586;SDS011;28216;53.362;-6.288;2022-09-01T04:58:43;7.50;;;3.47;;
42586;SDS011;28216;53.362;-6.288;2022-09-01T05:01:28;8.10;;;3.60;;
42586;SDS011;28216;53.362;-6.288;2022-09-01T05:03:54;6.95;;;3.65;;
42586;SDS011;28216;53.362;-6.288;2022-09-01T05:06:26;6.90;;;3.50;;
42586;SDS011;28216;53.362;-6.288;2022-09-01T05:08:53;9.93;;;4.07;;
42586;SDS011;28216;53.362;-6.288;2022-09-01T05:11:22;9.60;;;3.88;;
42586;SDS011;28216;53.362;-6.288;2022-09-01T05:13:48;8.65;;;3.97;;
42586;SDS011;28216;53.362;-6.288;2022-09-01T05:16:16;15.27;;;4.03;;
42586;SDS011;28216;53.362;-6.288;2022-09-01T05:18:46;7.97;;;3.75;;
42586;SDS011;28216;53.362;-6.288;2022-09-01T05:21:14;10.30;;;4.20;;
42586;SDS011;28216;53.362;-6.288;2022-09-01T05:23:42;11.15;;;3.97;;
42586;SDS011;28216;53.362;-6.288;2022-09-01T05:26:30;10.85;;;4.07;;
42586;SDS011;28216;53.362;-6.288;2022-09-01T05:28:59;8.70;;;3.90;;
42586;SDS011;28216;53.362;-6.288;2022-09-01T05:31:34;10.05;;;4.10;;
42586;SDS011;28216;53.362;-6.288;2022-09-01T05:34:01;6.13;;;3.78;;
42586;SDS011;28216;53.362;-6.288;2022-09-01T05:36:27;8.15;;;4.32;;
42586;SDS011;28216;53.362;-6.288;2022-09-01T05:38:55;9.85;;;3.88;;
42586;SDS011;28216;53.362;-6.288;2022-09-01T05:41:22;9.70;;;4.00;;
42586;SDS011;28216;53.362;-6.288;2022-09-01T05:43:48;11.35;;;4.15;;
42586;SDS011;28216;53.362;-6.288;2022-09-01T05:46:17;10.57;;;4.30;;
42586;SDS011;28216;53.362;-6.288;2022-09-01T05:48:46;9.13;;;4.18;;
42586;SDS011;28216;53.362;-6.288;2022-09-01T05:51:13;13.05;;;4.10;;
42586;SDS011;28216;53.362;-6.288;2022-09-01T05:53:45;12.57;;;4.70;;
42586;SDS011;28216;53.362;-6.288;2022-09-01T05:56:15;14.73;;;4.65;;
42586;SDS011;28216;53.362;-6.288;2022-09-01T05:58:43;9.52;;;4.43;;
42586;SDS011;28216;53.362;-6.288;2022-09-01T06:01:16;9.95;;;4.40;;
42586;SDS011;28216;53.362;-6.288;2022-09-01T06:03:46;11.55;;;4.82;;
42586;SDS011;28216;53.362;-6.288;2022-09-01T06:06:19;12.93;;;4.88;;
42586;SDS011;28216;53.362;-6.288;2022-09-01T06:08:49;9.15;;;4.47;;
42586;SDS011;28216;53.362;-6.288;2022-09-01T06:11:16;11.02;;;4.65;;
42586;SDS011;28216;53.362;-6.288;2022-09-01T06:13:43;9.95;;;4.38;;
42586;SDS011;28216;53.362;-6.288;2022-09-01T06:16:11;11.80;;;4.82;;
42586;SDS011;28216;53.362;-6.288;2022-09-01T06:18:39;9.90;;;4.20;;
42586;SDS011;28216;53.362;-6.288;2022-09-01T06:21:07;12.90;;;4.75;;
42586;SDS011;28216;53.362;-6.288;2022-09-01T06:23:36;10.75;;;5.07;;
42586;SDS011;28216;53.362;-6.288;2022-09-01T06:26:01;12.48;;;4.35;;
42586;SDS011;28216;53.362;-6.288;2022-09-01T06:28:28;13.43;;;4.53;;
42586;SDS011;28216;53.362;-6.288;2022-09-01T06:30:54;10.70;;;4.55;;
42586;SDS011;28216;53.362;-6.288;2022-09-01T06:33:21;11.50;;;4.40;;
42586;SDS011;28216;53.362;-6.288;2022-09-01T06:35:49;10.32;;;4.38;;
42586;SDS011;28216;53.362;-6.288;2022-09-01T06:38:16;14.43;;;4.63;;
42586;SDS011;28216;53.362;-6.288;2022-09-01T06:40:43;10.40;;;4.38;;
42586;SDS011;28216;53.362;-6.288;2022-09-01T06:43:10;15.98;;;4.38;;
42586;SDS011;28216;53.362;-6.288;2022-09-01T06:45:39;11.38;;;4.15;;
42586;SDS011;28216;53.362;-6.288;2022-09-01T06:48:10;14.32;;;4.10;;
42586;SDS011;28216;53.362;-6.288;2022-09-01T06:50:40;10.23;;;4.03;;
42586;SDS011;28216;53.362;-6.288;2022-09-01T06:53:07;10.10;;;3.58;;
42586;SDS011;28216;53.362;-6.288;2022-09-01T06:55:38;12.85;;;3.88;;
42586;SDS011;28216;53.362;-6.288;2022-09-01T06:58:06;12.55;;;3.53;;
42586;SDS011;28216;53.362;-6.288;2022-09-01T07:00:38;12.38;;;3.63;;
42586;SDS011;28216;53.362;-6.288;2022-09-01T07:03:09;11.90;;;3.22;;
42586;SDS011;28216;53.362;-6.288;2022-09-01T07:05:41;9.75;;;3.30;;
42586;SDS011;28216;53.362;-6.288;2022-09-01T07:08:09;10.88;;;3.33;;
42586;SDS011;28216;53.362;-6.288;2022-09-01T07:10:42;7.82;;;3.17;;
42586;SDS011;28216;53.362;-6.288;2022-09-01T07:13:11;8.88;;;3.10;;
42586;SDS011;28216;53.362;-6.288;2022-09-01T07:15:43;10.38;;;3.20;;
42586;SDS011;28216;53.362;-6.288;2022-09-01T07:18:12;7.10;;;3.28;;
42586;SDS011;28216;53.362;-6.288;2022-09-01T07:20:39;8.15;;;2.90;;
42586;SDS011;28216;53.362;-6.288;2022-09-01T07:23:06;11.52;;;3.40;;
42586;SDS011;28216;53.362;-6.288;2022-09-01T07:25:32;8.60;;;2.97;;
42586;SDS011;28216;53.362;-6.288;2022-09-01T07:28:03;9.70;;;3.25;;
42586;SDS011;28216;53.362;-6.288;2022-09-01T07:30:29;8.82;;;3.20;;
42586;SDS011;28216;53.362;-6.288;2022-09-01T07:32:57;8.30;;;3.20;;
42586;SDS011;28216;53.362;-6.288;2022-09-01T07:35:22;11.43;;;3.00;;
42586;SDS011;28216;53.362;-6.288;2022-09-01T07:37:48;8.23;;;3.13;;
42586;SDS011;28216;53.362;-6.288;2022-09-01T07:40:15;10.35;;;3.03;;
42586;SDS011;28216;53.362;-6.288;2022-09-01T07:42:45;8.95;;;3.20;;
42586;SDS011;28216;53.362;-6.288;2022-09-01T07:45:12;9.98;;;3.30;;
42586;SDS011;28216;53.362;-6.288;2022-09-01T07:47:41;7.95;;;3.70;;
42586;SDS011;28216;53.362;-6.288;2022-09-01T07:50:08;6.80;;;3.35;;
42586;SDS011;28216;53.362;-6.288;2022-09-01T07:52:34;9.70;;;3.25;;
42586;SDS011;28216;53.362;-6.288;2022-09-01T07:55:06;8.25;;;3.17;;
42586;SDS011;28216;53.362;-6.288;2022-09-01T07:57:36;10.13;;;3.17;;
42586;SDS011;28216;53.362;-6.288;2022-09-01T08:00:07;10.85;;;3.30;;
42586;SDS011;28216;53.362;-6.288;2022-09-01T08:02:34;6.60;;;2.80;;
42586;SDS011;28216;53.362;-6.288;2022-09-01T08:05:00;9.40;;;3.20;;
42586;SDS011;28216;53.362;-6.288;2022-09-01T08:07:25;7.97;;;3.13;;
42586;SDS011;28216;53.362;-6.288;2022-09-01T08:09:51;12.90;;;3.65;;
42586;SDS011;28216;53.362;-6.288;2022-09-01T08:12:16;9.27;;;3.10;;
42586;SDS011;28216;53.362;-6.288;2022-09-01T08:14:42;4.78;;;3.00;;
42586;SDS011;28216;53.362;-6.288;2022-09-01T08:17:08;7.53;;;3.33;;
42586;SDS011;28216;53.362;-6.288;2022-09-01T08:19:33;7.78;;;3.10;;
42586;SDS011;28216;53.362;-6.288;2022-09-01T08:22:00;10.43;;;2.85;;
42586;SDS011;28216;53.362;-6.288;2022-09-01T08:24:26;7.68;;;3.30;;
42586;SDS011;28216;53.362;-6.288;2022-09-01T08:26:51;12.68;;;3.80;;
42586;SDS011;28216;53.362;-6.288;2022-09-01T08:29:17;9.18;;;3.03;;
42586;SDS011;28216;53.362;-6.288;2022-09-01T08:31:42;6.70;;;2.63;;
42586;SDS011;28216;53.362;-6.288;2022-09-01T08:34:10;6.70;;;3.05;;
42586;SDS011;28216;53.362;-6.288;2022-09-01T08:36:36;10.20;;;3.30;;
42586;SDS011;28216;53.362;-6.288;2022-09-01T08:39:02;6.82;;;3.17;;
42586;SDS011;28216;53.362;-6.288;2022-09-01T08:41:44;11.35;;;3.33;;
42586;SDS011;28216;53.362;-6.288;2022-09-01T08:44:35;7.80;;;3.20;;
42586;SDS011;28216;53.362;-6.288;2022-09-01T08:47:22;8.93;;;2.60;;
42586;SDS011;28216;53.362;-6.288;2022-09-01T08:49:47;9.40;;;3.30;;
42586;SDS011;28216;53.362;-6.288;2022-09-01T08:52:23;6.00;;;2.63;;
42586;SDS011;28216;53.362;-6.288;2022-09-01T08:54:57;8.68;;;2.90;;
42586;SDS011;28216;53.362;-6.288;2022-09-01T08:57:35;10.48;;;3.15;;
42586;SDS011;28216;53.362;-6.288;2022-09-01T09:00:05;7.38;;;3.22;;
42586;SDS011;28216;53.362;-6.288;2022-09-01T09:09:07;9.20;;;3.20;;
42586;SDS011;28216;53.362;-6.288;2022-09-01T09:14:13;9.55;;;3.00;;
42586;SDS011;28216;53.362;-6.288;2022-09-01T09:16:48;8.27;;;3.28;;
42586;SDS011;28216;53.362;-6.288;2022-09-01T09:21:58;8.80;;;3.25;;
42586;SDS011;28216;53.362;-6.288;2022-09-01T09:24:36;9.25;;;3.20;;
42586;SDS011;28216;53.362;-6.288;2022-09-01T09:29:57;5.95;;;2.60;;
42586;SDS011;28216;53.362;-6.288;2022-09-01T09:37:50;5.60;;;2.60;;
42586;SDS011;28216;53.362;-6.288;2022-09-01T09:40:25;7.38;;;2.60;;
42586;SDS011;28216;53.362;-6.288;2022-09-01T09:45:24;7.45;;;2.50;;
42586;SDS011;28216;53.362;-6.288;2022-09-01T09:48:25;7.35;;;2.63;;
42586;SDS011;28216;53.362;-6.288;2022-09-01T09:50:53;4.38;;;2.58;;
42586;SDS011;28216;53.362;-6.288;2022-09-01T09:53:29;9.30;;;2.70;;
42586;SDS011;28216;53.362;-6.288;2022-09-01T09:56:20;8.00;;;2.15;;
42586;SDS011;28216;53.362;-6.288;2022-09-01T09:58:50;6.93;;;2.45;;
42586;SDS011;28216;53.362;-6.288;2022-09-01T10:06:33;6.63;;;2.33;;
42586;SDS011;28216;53.362;-6.288;2022-09-01T10:09:03;7.15;;;2.45;;
42586;SDS011;28216;53.362;-6.288;2022-09-01T10:11:44;5.90;;;2.30;;
42586;SDS011;28216;53.362;-6.288;2022-09-01T10:14:16;11.73;;;2.53;;
42586;SDS011;28216;53.362;-6.288;2022-09-01T10:16:45;6.28;;;2.17;;
42586;SDS011;28216;53.362;-6.288;2022-09-01T10:19:14;8.82;;;2.63;;
42586;SDS011;28216;53.362;-6.288;2022-09-01T10:21:41;8.27;;;2.88;;
42586;SDS011;28216;53.362;-6.288;2022-09-01T10:26:47;5.43;;;2.40;;
42586;SDS011;28216;53.362;-6.288;2022-09-01T10:29:28;8.30;;;2.30;;
42586;SDS011;28216;53.362;-6.288;2022-09-01T10:31:58;6.00;;;2.45;;
42586;SDS011;28216;53.362;-6.288;2022-09-01T10:34:26;5.45;;;2.22;;
42586;SDS011;28216;53.362;-6.288;2022-09-01T10:36:57;7.60;;;2.13;;
42586;SDS011;28216;53.362;-6.288;2022-09-01T10:39:23;8.05;;;2.10;;
42586;SDS011;28216;53.362;-6.288;2022-09-01T10:41:52;4.32;;;2.20;;
42586;SDS011;28216;53.362;-6.288;2022-09-01T10:46:46;7.25;;;2.38;;
42586;SDS011;28216;53.362;-6.288;2022-09-01T10:49:21;6.25;;;2.17;;
42586;SDS011;28216;53.362;-6.288;2022-09-01T10:52:05;8.18;;;2.35;;
42586;SDS011;28216;53.362;-6.288;2022-09-01T10:57:02;7.70;;;2.45;;
42586;SDS011;28216;53.362;-6.288;2022-09-01T10:59:33;4.75;;;2.22;;
42586;SDS011;28216;53.362;-6.288;2022-09-01T11:02:04;8.48;;;2.63;;
42586;SDS011;28216;53.362;-6.288;2022-09-01T11:07:04;5.10;;;2.20;;
42586;SDS011;28216;53.362;-6.288;2022-09-01T11:15:34;6.78;;;2.20;;
42586;SDS011;28216;53.362;-6.288;2022-09-01T11:17:59;8.80;;;3.13;;
42586;SDS011;28216;53.362;-6.288;2022-09-01T11:20:28;7.25;;;2.10;;
42586;SDS011;28216;53.362;-6.288;2022-09-01T11:25:44;9.82;;;2.50;;
42586;SDS011;28216;53.362;-6.288;2022-09-01T11:35:44;6.80;;;2.95;;
42586;SDS011;28216;53.362;-6.288;2022-09-01T11:38:11;7.72;;;3.08;;
42586;SDS011;28216;53.362;-6.288;2022-09-01T11:40:40;7.50;;;3.10;;
42586;SDS011;28216;53.362;-6.288;2022-09-01T11:43:08;7.45;;;3.00;;
42586;SDS011;28216;53.362;-6.288;2022-09-01T11:48:44;8.93;;;2.80;;
42586;SDS011;28216;53.362;-6.288;2022-09-01T11:51:11;4.70;;;2.22;;
42586;SDS011;28216;53.362;-6.288;2022-09-01T11:53:36;6.68;;;2.33;;
42586;SDS011;28216;53.362;-6.288;2022-09-01T11:56:13;7.45;;;2.45;;
42586;SDS011;28216;53.362;-6.288;2022-09-01T11:58:41;7.20;;;2.25;;
42586;SDS011;28216;53.362;-6.288;2022-09-01T12:01:14;8.88;;;2.42;;
42586;SDS011;28216;53.362;-6.288;2022-09-01T12:03:43;7.40;;;2.35;;
42586;SDS011;28216;53.362;-6.288;2022-09-01T12:06:12;5.22;;;2.10;;
42586;SDS011;28216;53.362;-6.288;2022-09-01T12:08:49;6.60;;;2.15;;
42586;SDS011;28216;53.362;-6.288;2022-09-01T12:11:23;7.85;;;2.72;;
42586;SDS011;28216;53.362;-6.288;2022-09-01T12:13:56;7.43;;;2.20;;
42586;SDS011;28216;53.362;-6.288;2022-09-01T12:16:24;5.70;;;2.40;;
42586;SDS011;28216;53.362;-6.288;2022-09-01T12:18:51;6.32;;;2.00;;
42586;SDS011;28216;53.362;-6.288;2022-09-01T12:21:30;5.18;;;1.88;;
42586;SDS011;28216;53.362;-6.288;2022-09-01T12:24:11;4.07;;;2.00;;
42586;SDS011;28216;53.362;-6.288;2022-09-01T12:26:40;7.05;;;2.20;;
42586;SDS011;28216;53.362;-6.288;2022-09-01T12:29:06;5.13;;;2.00;;
42586;SDS011;28216;53.362;-6.288;2022-09-01T12:31:32;6.18;;;2.25;;
42586;SDS011;28216;53.362;-6.288;2022-09-01T12:33:58;6.53;;;2.33;;
42586;SDS011;28216;53.362;-6.288;2022-09-01T12:39:18;11.20;;;2.72;;
42586;SDS011;28216;53.362;-6.288;2022-09-01T12:42:04;5.63;;;2.10;;
42586;SDS011;28216;53.362;-6.288;2022-09-01T12:44:33;7.70;;;2.63;;
42586;SDS011;28216;53.362;-6.288;2022-09-01T12:47:09;5.82;;;2.05;;
42586;SDS011;28216;53.362;-6.288;2022-09-01T12:54:44;6.93;;;2.40;;
42586;SDS011;28216;53.362;-6.288;2022-09-01T12:57:24;5.75;;;2.22;;
42586;SDS011;28216;53.362;-6.288;2022-09-01T13:05:40;9.40;;;2.47;;
42586;SDS011;28216;53.362;-6.288;2022-09-01T13:08:11;5.97;;;2.10;;
42586;SDS011;28216;53.362;-6.288;2022-09-01T13:13:06;6.15;;;2.67;;
42586;SDS011;28216;53.362;-6.288;2022-09-01T13:15:34;4.38;;;2.40;;
42586;SDS011;28216;53.362;-6.288;2022-09-01T13:18:00;7.55;;;2.33;;
42586;SDS011;28216;53.362;-6.288;2022-09-01T13:20:26;8.10;;;2.42;;
42586;SDS011;28216;53.362;-6.288;2022-09-01T13:22:51;7.25;;;2.35;;
42586;SDS011;28216;53.362;-6.288;2022-09-01T13:25:19;5.05;;;2.25;;
42586;SDS011;28216;53.362;-6.288;2022-09-01T13:27:45;5.00;;;2.35;;
42586;SDS011;28216;53.362;-6.288;2022-09-01T13:30:19;5.88;;;2.85;;
42586;SDS011;28216;53.362;-6.288;2022-09-01T13:32:46;3.72;;;2.30;;
42586;SDS011;28216;53.362;-6.288;2022-09-01T13:35:14;7.82;;;2.63;;
42586;SDS011;28216;53.362;-6.288;2022-09-01T13:37:41;12.00;;;2.58;;
42586;SDS011;28216;53.362;-6.288;2022-09-01T13:40:07;6.13;;;2.50;;
42586;SDS011;28216;53.362;-6.288;2022-09-01T13:42:43;5.45;;;2.58;;
42586;SDS011;28216;53.362;-6.288;2022-09-01T13:45:20;5.50;;;2.75;;
42586;SDS011;28216;53.362;-6.288;2022-09-01T13:47:48;5.90;;;2.50;;
42586;SDS011;28216;53.362;-6.288;2022-09-01T13:50:15;7.90;;;2.42;;
42586;SDS011;28216;53.362;-6.288;2022-09-01T13:52:44;6.70;;;2.42;;
42586;SDS011;28216;53.362;-6.288;2022-09-01T13:55:13;7.88;;;2.92;;
42586;SDS011;28216;53.362;-6.288;2022-09-01T13:57:40;9.32;;;2.38;;
42586;SDS011;28216;53.362;-6.288;2022-09-01T14:00:07;8.68;;;2.80;;
42586;SDS011;28216;53.362;-6.288;2022-09-01T14:02:36;2.50;;;2.30;;
42586;SDS011;28216;53.362;-6.288;2022-09-01T14:05:03;6.65;;;2.90;;
42586;SDS011;28216;53.362;-6.288;2022-09-01T14:07:29;6.03;;;2.67;;
42586;SDS011;28216;53.362;-6.288;2022-09-01T14:09:56;7.05;;;2.58;;
42586;SDS011;28216;53.362;-6.288;2022-09-01T14:12:21;6.55;;;2.75;;
42586;SDS011;28216;53.362;-6.288;2022-09-01T14:14:47;7.63;;;2.72;;
42586;SDS011;28216;53.362;-6.288;2022-09-01T14:17:12;6.25;;;2.70;;
42586;SDS011;28216;53.362;-6.288;2022-09-01T14:19:38;6.28;;;2.40;;
42586;SDS011;28216;53.362;-6.288;2022-09-01T14:22:03;5.85;;;2.40;;
42586;SDS011;28216;53.362;-6.288;2022-09-01T14:24:30;3.53;;;2.67;;
42586;SDS011;28216;53.362;-6.288;2022-09-01T14:26:59;4.32;;;2.70;;
42586;SDS011;28216;53.362;-6.288;2022-09-01T14:29:25;8.75;;;2.65;;
42586;SDS011;28216;53.362;-6.288;2022-09-01T14:31:51;7.90;;;2.88;;
42586;SDS011;28216;53.362;-6.288;2022-09-01T14:34:17;3.20;;;2.55;;
42586;SDS011;28216;53.362;-6.288;2022-09-01T14:36:43;5.78;;;2.55;;
42586;SDS011;28216;53.362;-6.288;2022-09-01T14:39:09;6.70;;;2.70;;
42586;SDS011;28216;53.362;-6.288;2022-09-01T14:41:34;4.82;;;2.50;;
42586;SDS011;28216;53.362;-6.288;2022-09-01T14:44:00;5.85;;;2.40;;
42586;SDS011;28216;53.362;-6.288;2022-09-01T14:46:27;4.25;;;2.47;;
42586;SDS011;28216;53.362;-6.288;2022-09-01T14:48:54;5.72;;;2.33;;
42586;SDS011;28216;53.362;-6.288;2022-09-01T14:51:24;7.07;;;2.60;;
42586;SDS011;28216;53.362;-6.288;2022-09-01T14:53:52;6.20;;;2.47;;
42586;SDS011;28216;53.362;-6.288;2022-09-01T14:56:18;5.50;;;2.25;;
42586;SDS011;28216;53.362;-6.288;2022-09-01T14:58:45;3.88;;;2.30;;
42586;SDS011;28216;53.362;-6.288;2022-09-01T15:01:13;4.22;;;2.20;;
42586;SDS011;28216;53.362;-6.288;2022-09-01T15:03:40;5.70;;;2.50;;
42586;SDS011;28216;53.362;-6.288;2022-09-01T15:06:06;5.10;;;2.60;;
42586;SDS011;28216;53.362;-6.288;2022-09-01T15:08:32;5.85;;;2.80;;
42586;SDS011;28216;53.362;-6.288;2022-09-01T15:10:57;6.63;;;2.50;;
42586;SDS011;28216;53.362;-6.288;2022-09-01T15:13:25;4.85;;;2.17;;
42586;SDS011;28216;53.362;-6.288;2022-09-01T15:15:51;7.05;;;2.70;;
42586;SDS011;28216;53.362;-6.288;2022-09-01T15:18:17;5.80;;;2.25;;
42586;SDS011;28216;53.362;-6.288;2022-09-01T15:20:43;4.18;;;2.47;;
42586;SDS011;28216;53.362;-6.288;2022-09-01T15:23:15;7.18;;;2.90;;
42586;SDS011;28216;53.362;-6.288;2022-09-01T15:25:43;6.57;;;2.20;;
42586;SDS011;28216;53.362;-6.288;2022-09-01T15:28:09;7.55;;;2.70;;
42586;SDS011;28216;53.362;-6.288;2022-09-01T15:30:35;4.88;;;2.40;;
42586;SDS011;28216;53.362;-6.288;2022-09-01T15:33:04;6.68;;;2.65;;
42586;SDS011;28216;53.362;-6.288;2022-09-01T15:35:30;5.75;;;2.40;;
42586;SDS011;28216;53.362;-6.288;2022-09-01T15:37:57;3.15;;;2.08;;
42586;SDS011;28216;53.362;-6.288;2022-09-01T15:40:23;4.63;;;2.20;;
42586;SDS011;28216;53.362;-6.288;2022-09-01T15:42:50;3.80;;;2.20;;
42586;SDS011;28216;53.362;-6.288;2022-09-01T15:45:19;5.82;;;2.40;;
42586;SDS011;28216;53.362;-6.288;2022-09-01T15:47:50;6.00;;;2.10;;
42586;SDS011;28216;53.362;-6.288;2022-09-01T15:50:16;7.68;;;2.58;;
42586;SDS011;28216;53.362;-6.288;2022-09-01T15:52:58;6.47;;;2.10;;
42586;SDS011;28216;53.362;-6.288;2022-09-01T15:55:29;5.75;;;2.00;;
42586;SDS011;28216;53.362;-6.288;2022-09-01T15:58:00;4.75;;;2.30;;
42586;SDS011;28216;53.362;-6.288;2022-09-01T16:00:27;4.30;;;2.17;;
42586;SDS011;28216;53.362;-6.288;2022-09-01T16:02:54;5.70;;;2.40;;
42586;SDS011;28216;53.362;-6.288;2022-09-01T16:05:22;5.38;;;2.50;;